»·PEaware :: N416JK KLAS-KPSP

N416JK :: KLAS-KPSP

FLIGHT INFORMATION

Flight Status: Arrived
Operator: Privately registered:
United States
More flights under this callsign
Pilot: John K. (4202)
Aircraft: Unknown
(EPIC)
More flights by this aircraft type
Origin: KLAS McCarran Intl
United States
Destination: KPSP Palm Springs Intl
United States
More flights between these airports :: More routes between these airports
Route: +LAS V538 TNP V370 PSP
File this flight plan on PilotEdge
Remarks:
Altitude:
(Current/Filed)
12,000ft
Speed:
(Current/Filed)
220kts
Departed: 21-Dec-17 09:19 AM
Arrived: 21-Dec-17 10:02 AM
Distance/Time
Traveled:
151nm/0:43
Distance/Time
To Go:
Arrived

Flight Plot

Page will automatically refresh every two minutes.


Map Options




Map Legend


Flown Route
Filed Route
Departure Airport
Arrival Airport
Navaid (VOR, NDB)
Fix

Horizontal Profiles

Position Reports

Time Latitude Longitude Heading Altitude Ground
Speed
21-Dec-17 09:07 36.081493 -115.170480 84 2145ft 0kts
21-Dec-17 09:08 36.081493 -115.170480 84 2145ft 0kts
21-Dec-17 09:09 36.081493 -115.170480 84 2145ft 0kts
21-Dec-17 09:10 36.081493 -115.170480 84 2145ft 0kts
21-Dec-17 09:11 36.081493 -115.170480 84 2145ft 0kts
21-Dec-17 09:12 36.081493 -115.170480 84 2145ft 0kts
21-Dec-17 09:13 36.081493 -115.170480 84 2145ft 0kts
21-Dec-17 09:14 36.081493 -115.170480 84 2145ft 0kts
21-Dec-17 09:15 36.081493 -115.170480 84 2145ft 0kts
21-Dec-17 09:16 36.081493 -115.170480 84 2145ft 0kts
21-Dec-17 09:17 36.081493 -115.170480 84 2145ft 0kts
21-Dec-17 09:18 36.081493 -115.170480 84 2145ft 0kts
21-Dec-17 09:19 36.081493 -115.170480 84 2145ft 0kts
21-Dec-17 09:20 36.081495 -115.170221 98 2145ft 8kts
21-Dec-17 09:21 36.078838 -115.170843 199 2145ft 12kts
21-Dec-17 09:22 36.078305 -115.170876 149 2145ft 0kts
21-Dec-17 09:23 36.078033 -115.170371 101 2145ft 0kts
21-Dec-17 09:24 36.078003 -115.169954 91 2145ft 11kts
21-Dec-17 09:25 36.082004 -115.166543 20 2149ft 104kts
21-Dec-17 09:26 36.116754 -115.171200 301 3875ft 203kts
21-Dec-17 09:27 36.143405 -115.234074 301 5908ft 224kts
21-Dec-17 09:28 36.159404 -115.308941 242 7343ft 276kts
21-Dec-17 09:29 36.086252 -115.348839 201 8463ft 294kts
21-Dec-17 09:30 36.018041 -115.322252 151 9712ft 282kts
21-Dec-17 09:31 35.950916 -115.281716 149 10972ft 275kts
21-Dec-17 09:32 35.885872 -115.239173 148 11954ft 289kts
21-Dec-17 09:33 35.809069 -115.188401 148 11967ft 337kts
21-Dec-17 09:34 35.718883 -115.166652 180 11967ft 351kts
21-Dec-17 09:35 35.624315 -115.168034 181 11967ft 342kts
21-Dec-17 09:36 35.533237 -115.169607 181 11968ft 334kts
21-Dec-17 09:37 35.442861 -115.171183 181 11965ft 332kts
21-Dec-17 09:38 35.353523 -115.172742 181 11961ft 336kts
21-Dec-17 09:39 35.263164 -115.174315 181 11966ft 340kts
21-Dec-17 09:40 35.171770 -115.175903 181 11984ft 341kts
21-Dec-17 09:41 35.083558 -115.197896 202 11978ft 339kts
21-Dec-17 09:42 34.994781 -115.236879 203 11972ft 340kts
21-Dec-17 09:43 34.906964 -115.275550 205 11974ft 340kts
21-Dec-17 09:44 34.819907 -115.313934 206 11975ft 339kts
21-Dec-17 09:45 34.732788 -115.352142 206 11976ft 338kts
21-Dec-17 09:46 34.644213 -115.390920 206 11932ft 339kts
21-Dec-17 09:47 34.556797 -115.429112 206 11932ft 339kts
21-Dec-17 09:48 34.469638 -115.467111 206 11936ft 339kts
21-Dec-17 09:49 34.382589 -115.504977 206 11932ft 337kts
21-Dec-17 09:50 34.302757 -115.556371 231 11950ft 319kts
21-Dec-17 09:51 34.238897 -115.627652 231 11959ft 318kts
21-Dec-17 09:52 34.175586 -115.698824 231 11962ft 330kts
21-Dec-17 09:53 34.111429 -115.775503 251 11983ft 311kts
21-Dec-17 09:54 34.077714 -115.864725 256 11958ft 278kts
21-Dec-17 09:55 34.047568 -115.947159 256 11710ft 276kts
21-Dec-17 09:56 34.016462 -116.032126 255 10908ft 285kts
21-Dec-17 09:57 33.985352 -116.116822 254 9545ft 261kts
21-Dec-17 09:58 33.959276 -116.188484 253 8140ft 240kts
21-Dec-17 09:59 33.928688 -116.256022 223 6980ft 233kts
21-Dec-17 10:00 33.876672 -116.277849 201 6971ft 166kts
21-Dec-17 10:01 33.831249 -116.292621 201 6045ft 180kts
21-Dec-17 10:02 33.784777 -116.310034 204 4638ft 177kts
21-Dec-17 10:03 33.757415 -116.350355 274 3089ft 172kts
21-Dec-17 10:04 33.764320 -116.399363 278 2353ft 133kts
21-Dec-17 10:05 33.771148 -116.439389 286 1961ft 116kts
21-Dec-17 10:06 33.788064 -116.471392 325 1374ft 119kts
21-Dec-17 10:07 33.812603 -116.492453 322 710ft 101kts
21-Dec-17 10:08 33.827698 -116.505948 321 481ft 36kts
21-Dec-17 10:09 33.825341 -116.507643 264 481ft 19kts

Navigation Log

Ident Type
1. KLAS Airport
2. LAS Navaid
3. CRESO Fix
4. GFS Navaid
5. ZELMA Fix
6. JOTNU Fix
7. TNP Navaid
8. PSP Navaid
9. KPSP Airport